Aviation Digital Data Service (ADDS)

Output produced by METARs form (1215 UTC 17 September 2019)
found at http://www.aviationweather.gov/metar/data/
 
METAR text: RKTN 171200Z 15004KT CAVOK 22/14 Q1015
Conditions at: RKTN (TAEGU (US/KOR-AF, KR) observed 1200 UTC 17 September 2019
Temperature: 22.0°C (72°F)
Dewpoint: 14.0°C (57°F) [RH = 60%]
Pressure (altimeter): 29.97 inches Hg (1015.0 mb)
Winds: from the SSE (150 degrees) at 5 MPH (4 knots; 2.1 m/s)
Visibility: 6 or more miles (10+ km)
Ceiling: ceiling and visibility are OK
Clouds: unknown
Weather: no significant weather observed at this time

METAR text: RKTN 171100Z 14007KT CAVOK 22/14 Q1015
Conditions at: RKTN (TAEGU (US/KOR-AF, KR) observed 1100 UTC 17 September 2019
Temperature: 22.0°C (72°F)
Dewpoint: 14.0°C (57°F) [RH = 60%]
Pressure (altimeter): 29.97 inches Hg (1015.0 mb)
Winds: from the SE (140 degrees) at 8 MPH (7 knots; 3.6 m/s)
Visibility: 6 or more miles (10+ km)
Ceiling: ceiling and visibility are OK
Clouds: unknown
Weather: no significant weather observed at this time

METAR text: RKTN 171000Z 12007KT 9999 FEW040 22/14 Q1014
Conditions at: RKTN (TAEGU (US/KOR-AF, KR) observed 1000 UTC 17 September 2019
Temperature: 22.0°C (72°F)
Dewpoint: 14.0°C (57°F) [RH = 60%]
Pressure (altimeter): 29.94 inches Hg (1014.0 mb)
Winds: from the ESE (120 degrees) at 8 MPH (7 knots; 3.6 m/s)
Visibility: 6 or more miles (10+ km)
Ceiling: at least 12,000 feet AGL
Clouds: few clouds at 4000 feet AGL
Weather: no significant weather observed at this time

METAR text: RKTN 170900Z 11010KT 9999 FEW040 25/14 Q1014
Conditions at: RKTN (TAEGU (US/KOR-AF, KR) observed 0900 UTC 17 September 2019
Temperature: 25.0°C (77°F)
Dewpoint: 14.0°C (57°F) [RH = 50%]
Pressure (altimeter): 29.94 inches Hg (1014.0 mb)
Winds: from the ESE (110 degrees) at 12 MPH (10 knots; 5.1 m/s)
Visibility: 6 or more miles (10+ km)
Ceiling: at least 12,000 feet AGL
Clouds: few clouds at 4000 feet AGL
Weather: no significant weather observed at this time

METAR text: RKTN 170800Z 13011KT 9999 FEW040 26/13 Q1013
Conditions at: RKTN (TAEGU (US/KOR-AF, KR) observed 0800 UTC 17 September 2019
Temperature: 26.0°C (79°F)
Dewpoint: 13.0°C (55°F) [RH = 45%]
Pressure (altimeter): 29.91 inches Hg (1013.0 mb)
Winds: from the SE (130 degrees) at 13 MPH (11 knots; 5.7 m/s)
Visibility: 6 or more miles (10+ km)
Ceiling: at least 12,000 feet AGL
Clouds: few clouds at 4000 feet AGL
Weather: no significant weather observed at this time

METAR text: RKTN 170700Z 13011KT 9999 FEW040 27/13 Q1013
Conditions at: RKTN (TAEGU (US/KOR-AF, KR) observed 0700 UTC 17 September 2019
Temperature: 27.0°C (81°F)
Dewpoint: 13.0°C (55°F) [RH = 42%]
Pressure (altimeter): 29.91 inches Hg (1013.0 mb)
Winds: from the SE (130 degrees) at 13 MPH (11 knots; 5.7 m/s)
Visibility: 6 or more miles (10+ km)
Ceiling: at least 12,000 feet AGL
Clouds: few clouds at 4000 feet AGL
Weather: no significant weather observed at this time

METAR text: RKTN 170600Z 13011KT 9999 FEW040 27/12 Q1013
Conditions at: RKTN (TAEGU (US/KOR-AF, KR) observed 0600 UTC 17 September 2019
Temperature: 27.0°C (81°F)
Dewpoint: 12.0°C (54°F) [RH = 39%]
Pressure (altimeter): 29.91 inches Hg (1013.0 mb)
Winds: from the SE (130 degrees) at 13 MPH (11 knots; 5.7 m/s)
Visibility: 6 or more miles (10+ km)
Ceiling: at least 12,000 feet AGL
Clouds: few clouds at 4000 feet AGL
Weather: no significant weather observed at this time

METAR text: RKTN 170500Z 14011KT 9999 FEW040 FEW200 27/13 Q1014
Conditions at: RKTN (TAEGU (US/KOR-AF, KR) observed 0500 UTC 17 September 2019
Temperature: 27.0°C (81°F)
Dewpoint: 13.0°C (55°F) [RH = 42%]
Pressure (altimeter): 29.94 inches Hg (1014.0 mb)
Winds: from the SE (140 degrees) at 13 MPH (11 knots; 5.7 m/s)
Visibility: 6 or more miles (10+ km)
Ceiling: at least 12,000 feet AGL
Clouds: few clouds at 4000 feet AGL
few clouds at 20000 feet AGL
Weather: no significant weather observed at this time

METAR text: RKTN 170400Z 10009KT 9999 FEW040 27/13 Q1015
Conditions at: RKTN (TAEGU (US/KOR-AF, KR) observed 0400 UTC 17 September 2019
Temperature: 27.0°C (81°F)
Dewpoint: 13.0°C (55°F) [RH = 42%]
Pressure (altimeter): 29.97 inches Hg (1015.0 mb)
Winds: from the E (100 degrees) at 10 MPH (9 knots; 4.6 m/s)
Visibility: 6 or more miles (10+ km)
Ceiling: at least 12,000 feet AGL
Clouds: few clouds at 4000 feet AGL
Weather: no significant weather observed at this time

METAR text: RKTN 170300Z 09008KT 9999 FEW040 26/13 Q1015
Conditions at: RKTN (TAEGU (US/KOR-AF, KR) observed 0300 UTC 17 September 2019
Temperature: 26.0°C (79°F)
Dewpoint: 13.0°C (55°F) [RH = 45%]
Pressure (altimeter): 29.97 inches Hg (1015.0 mb)
Winds: from the E (90 degrees) at 9 MPH (8 knots; 4.1 m/s)
Visibility: 6 or more miles (10+ km)
Ceiling: at least 12,000 feet AGL
Clouds: few clouds at 4000 feet AGL
Weather: no significant weather observed at this time

METAR text: RKTN 170200Z 12008KT 9999 FEW040 25/14 Q1015
Conditions at: RKTN (TAEGU (US/KOR-AF, KR) observed 0200 UTC 17 September 2019
Temperature: 25.0°C (77°F)
Dewpoint: 14.0°C (57°F) [RH = 50%]
Pressure (altimeter): 29.97 inches Hg (1015.0 mb)
Winds: from the ESE (120 degrees) at 9 MPH (8 knots; 4.1 m/s)
Visibility: 6 or more miles (10+ km)
Ceiling: at least 12,000 feet AGL
Clouds: few clouds at 4000 feet AGL
Weather: no significant weather observed at this time

METAR text: RKTN 170100Z 19001KT 9999 FEW040 FEW200 24/15 Q1016
Conditions at: RKTN (TAEGU (US/KOR-AF, KR) observed 0100 UTC 17 September 2019
Temperature: 24.0°C (75°F)
Dewpoint: 15.0°C (59°F) [RH = 57%]
Pressure (altimeter): 30.00 inches Hg (1016.0 mb)
Winds: from the S (190 degrees) at 1 MPH (1 knots; 0.5 m/s)
Visibility: 6 or more miles (10+ km)
Ceiling: at least 12,000 feet AGL
Clouds: few clouds at 4000 feet AGL
few clouds at 20000 feet AGL
Weather: no significant weather observed at this time

METAR text: RKTN 170000Z 01001KT 9999 FEW040 FEW200 20/14 Q1016
Conditions at: RKTN (TAEGU (US/KOR-AF, KR) observed 0000 UTC 17 September 2019
Temperature: 20.0°C (68°F)
Dewpoint: 14.0°C (57°F) [RH = 68%]
Pressure (altimeter): 30.00 inches Hg (1016.0 mb)
Winds: from the N (10 degrees) at 1 MPH (1 knots; 0.5 m/s)
Visibility: 6 or more miles (10+ km)
Ceiling: at least 12,000 feet AGL
Clouds: few clouds at 4000 feet AGL
few clouds at 20000 feet AGL
Weather: no significant weather observed at this time

METAR text: RKTN 162300Z 01001KT 9999 FEW040 FEW200 18/14 Q1016
Conditions at: RKTN (TAEGU (US/KOR-AF, KR) observed 2300 UTC 16 September 2019
Temperature: 18.0°C (64°F)
Dewpoint: 14.0°C (57°F) [RH = 77%]
Pressure (altimeter): 30.00 inches Hg (1016.0 mb)
Winds: from the N (10 degrees) at 1 MPH (1 knots; 0.5 m/s)
Visibility: 6 or more miles (10+ km)
Ceiling: at least 12,000 feet AGL
Clouds: few clouds at 4000 feet AGL
few clouds at 20000 feet AGL
Weather: no significant weather observed at this time

METAR text: RKTN 162200Z 06001KT 9999 FEW040 FEW200 16/13 Q1015
Conditions at: RKTN (TAEGU (US/KOR-AF, KR) observed 2200 UTC 16 September 2019
Temperature: 16.0°C (61°F)
Dewpoint: 13.0°C (55°F) [RH = 82%]
Pressure (altimeter): 29.97 inches Hg (1015.0 mb)
Winds: from the ENE (60 degrees) at 1 MPH (1 knots; 0.5 m/s)
Visibility: 6 or more miles (10+ km)
Ceiling: at least 12,000 feet AGL
Clouds: few clouds at 4000 feet AGL
few clouds at 20000 feet AGL
Weather: no significant weather observed at this time

METAR text: RKTN 162100Z 23001KT 9999 FEW040 SCT200 15/13 Q1015
Conditions at: RKTN (TAEGU (US/KOR-AF, KR) observed 2100 UTC 16 September 2019
Temperature: 15.0°C (59°F)
Dewpoint: 13.0°C (55°F) [RH = 88%]
Pressure (altimeter): 29.97 inches Hg (1015.0 mb)
Winds: from the SW (230 degrees) at 1 MPH (1 knots; 0.5 m/s)
Visibility: 6 or more miles (10+ km)
Ceiling: at least 12,000 feet AGL
Clouds: few clouds at 4000 feet AGL
scattered clouds at 20000 feet AGL
Weather: no significant weather observed at this time

METAR text: RKTN 162000Z 01001KT CAVOK 15/13 Q1014
Conditions at: RKTN (TAEGU (US/KOR-AF, KR) observed 2000 UTC 16 September 2019
Temperature: 15.0°C (59°F)
Dewpoint: 13.0°C (55°F) [RH = 88%]
Pressure (altimeter): 29.94 inches Hg (1014.0 mb)
Winds: from the N (10 degrees) at 1 MPH (1 knots; 0.5 m/s)
Visibility: 6 or more miles (10+ km)
Ceiling: ceiling and visibility are OK
Clouds: unknown
Weather: no significant weather observed at this time

METAR text: RKTN 161900Z 07001KT CAVOK 15/13 Q1014
Conditions at: RKTN (TAEGU (US/KOR-AF, KR) observed 1900 UTC 16 September 2019
Temperature: 15.0°C (59°F)
Dewpoint: 13.0°C (55°F) [RH = 88%]
Pressure (altimeter): 29.94 inches Hg (1014.0 mb)
Winds: from the ENE (70 degrees) at 1 MPH (1 knots; 0.5 m/s)
Visibility: 6 or more miles (10+ km)
Ceiling: ceiling and visibility are OK
Clouds: unknown
Weather: no significant weather observed at this time

METAR text: RKTN 161800Z 36001KT CAVOK 16/13 Q1013
Conditions at: RKTN (TAEGU (US/KOR-AF, KR) observed 1800 UTC 16 September 2019
Temperature: 16.0°C (61°F)
Dewpoint: 13.0°C (55°F) [RH = 82%]
Pressure (altimeter): 29.91 inches Hg (1013.0 mb)
Winds: from the N (360 degrees) at 1 MPH (1 knots; 0.5 m/s)
Visibility: 6 or more miles (10+ km)
Ceiling: ceiling and visibility are OK
Clouds: unknown
Weather: no significant weather observed at this time

METAR text: RKTN 161700Z 13001KT CAVOK 16/13 Q1013
Conditions at: RKTN (TAEGU (US/KOR-AF, KR) observed 1700 UTC 16 September 2019
Temperature: 16.0°C (61°F)
Dewpoint: 13.0°C (55°F) [RH = 82%]
Pressure (altimeter): 29.91 inches Hg (1013.0 mb)
Winds: from the SE (130 degrees) at 1 MPH (1 knots; 0.5 m/s)
Visibility: 6 or more miles (10+ km)
Ceiling: ceiling and visibility are OK
Clouds: unknown
Weather: no significant weather observed at this time

METAR text: RKTN 161600Z 13001KT CAVOK 17/14 Q1013
Conditions at: RKTN (TAEGU (US/KOR-AF, KR) observed 1600 UTC 16 September 2019
Temperature: 17.0°C (63°F)
Dewpoint: 14.0°C (57°F) [RH = 82%]
Pressure (altimeter): 29.91 inches Hg (1013.0 mb)
Winds: from the SE (130 degrees) at 1 MPH (1 knots; 0.5 m/s)
Visibility: 6 or more miles (10+ km)
Ceiling: ceiling and visibility are OK
Clouds: unknown
Weather: no significant weather observed at this time

METAR text: RKTN 161500Z 13001KT CAVOK 18/14 Q1013
Conditions at: RKTN (TAEGU (US/KOR-AF, KR) observed 1500 UTC 16 September 2019
Temperature: 18.0°C (64°F)
Dewpoint: 14.0°C (57°F) [RH = 77%]
Pressure (altimeter): 29.91 inches Hg (1013.0 mb)
Winds: from the SE (130 degrees) at 1 MPH (1 knots; 0.5 m/s)
Visibility: 6 or more miles (10+ km)
Ceiling: ceiling and visibility are OK
Clouds: unknown
Weather: no significant weather observed at this time

METAR text: RKTN 161400Z 11006KT CAVOK 20/14 Q1013
Conditions at: RKTN (TAEGU (US/KOR-AF, KR) observed 1400 UTC 16 September 2019
Temperature: 20.0°C (68°F)
Dewpoint: 14.0°C (57°F) [RH = 68%]
Pressure (altimeter): 29.91 inches Hg (1013.0 mb)
Winds: from the ESE (110 degrees) at 7 MPH (6 knots; 3.1 m/s)
Visibility: 6 or more miles (10+ km)
Ceiling: ceiling and visibility are OK
Clouds: unknown
Weather: no significant weather observed at this time

METAR text: RKTN 161300Z 15007KT CAVOK 21/14 Q1012
Conditions at: RKTN (TAEGU (US/KOR-AF, KR) observed 1300 UTC 16 September 2019
Temperature: 21.0°C (70°F)
Dewpoint: 14.0°C (57°F) [RH = 64%]
Pressure (altimeter): 29.88 inches Hg (1012.0 mb)
Winds: from the SSE (150 degrees) at 8 MPH (7 knots; 3.6 m/s)
Visibility: 6 or more miles (10+ km)
Ceiling: ceiling and visibility are OK
Clouds: unknown
Weather: no significant weather observed at this time

METAR text: RKTN 161200Z 14005KT CAVOK 22/15 Q1012
Conditions at: RKTN (TAEGU (US/KOR-AF, KR) observed 1200 UTC 16 September 2019
Temperature: 22.0°C (72°F)
Dewpoint: 15.0°C (59°F) [RH = 65%]
Pressure (altimeter): 29.88 inches Hg (1012.0 mb)
Winds: from the SE (140 degrees) at 6 MPH (5 knots; 2.6 m/s)
Visibility: 6 or more miles (10+ km)
Ceiling: ceiling and visibility are OK
Clouds: unknown
Weather: no significant weather observed at this time

METAR text: RKTN 161100Z 14008KT CAVOK 22/15 Q1011
Conditions at: RKTN (TAEGU (US/KOR-AF, KR) observed 1100 UTC 16 September 2019
Temperature: 22.0°C (72°F)
Dewpoint: 15.0°C (59°F) [RH = 65%]
Pressure (altimeter): 29.85 inches Hg (1011.0 mb)
Winds: from the SE (140 degrees) at 9 MPH (8 knots; 4.1 m/s)
Visibility: 6 or more miles (10+ km)
Ceiling: ceiling and visibility are OK
Clouds: unknown
Weather: no significant weather observed at this time

METAR text: RKTN 161000Z 14006KT CAVOK 23/14 Q1010
Conditions at: RKTN (TAEGU (US/KOR-AF, KR) observed 1000 UTC 16 September 2019
Temperature: 23.0°C (73°F)
Dewpoint: 14.0°C (57°F) [RH = 57%]
Pressure (altimeter): 29.82 inches Hg (1010.0 mb)
Winds: from the SE (140 degrees) at 7 MPH (6 knots; 3.1 m/s)
Visibility: 6 or more miles (10+ km)
Ceiling: ceiling and visibility are OK
Clouds: unknown
Weather: no significant weather observed at this time

METAR text: RKTN 160900Z 12009KT 9999 FEW040 FEW200 25/14 Q1010
Conditions at: RKTN (TAEGU (US/KOR-AF, KR) observed 0900 UTC 16 September 2019
Temperature: 25.0°C (77°F)
Dewpoint: 14.0°C (57°F) [RH = 50%]
Pressure (altimeter): 29.82 inches Hg (1010.0 mb)
Winds: from the ESE (120 degrees) at 10 MPH (9 knots; 4.6 m/s)
Visibility: 6 or more miles (10+ km)
Ceiling: at least 12,000 feet AGL
Clouds: few clouds at 4000 feet AGL
few clouds at 20000 feet AGL
Weather: no significant weather observed at this time

METAR text: RKTN 160800Z 12012KT 9999 FEW040 FEW200 27/15 Q1009
Conditions at: RKTN (TAEGU (US/KOR-AF, KR) observed 0800 UTC 16 September 2019
Temperature: 27.0°C (81°F)
Dewpoint: 15.0°C (59°F) [RH = 48%]
Pressure (altimeter): 29.79 inches Hg (1009.0 mb)
Winds: from the ESE (120 degrees) at 14 MPH (12 knots; 6.2 m/s)
Visibility: 6 or more miles (10+ km)
Ceiling: at least 12,000 feet AGL
Clouds: few clouds at 4000 feet AGL
few clouds at 20000 feet AGL
Weather: no significant weather observed at this time

METAR text: RKTN 160700Z 12007KT 9999 SCT040 28/16 Q1009
Conditions at: RKTN (TAEGU (US/KOR-AF, KR) observed 0700 UTC 16 September 2019
Temperature: 28.0°C (82°F)
Dewpoint: 16.0°C (61°F) [RH = 48%]
Pressure (altimeter): 29.79 inches Hg (1009.0 mb)
Winds: from the ESE (120 degrees) at 8 MPH (7 knots; 3.6 m/s)
Visibility: 6 or more miles (10+ km)
Ceiling: at least 12,000 feet AGL
Clouds: scattered clouds at 4000 feet AGL
Weather: no significant weather observed at this time

METAR text: RKTN 160600Z 14006KT 9999 SCT040 28/17 Q1009
Conditions at: RKTN (TAEGU (US/KOR-AF, KR) observed 0600 UTC 16 September 2019
Temperature: 28.0°C (82°F)
Dewpoint: 17.0°C (63°F) [RH = 51%]
Pressure (altimeter): 29.79 inches Hg (1009.0 mb)
Winds: from the SE (140 degrees) at 7 MPH (6 knots; 3.1 m/s)
Visibility: 6 or more miles (10+ km)
Ceiling: at least 12,000 feet AGL
Clouds: scattered clouds at 4000 feet AGL
Weather: no significant weather observed at this time

METAR text: RKTN 160500Z 06002KT 9999 SCT040 28/17 Q1009
Conditions at: RKTN (TAEGU (US/KOR-AF, KR) observed 0500 UTC 16 September 2019
Temperature: 28.0°C (82°F)
Dewpoint: 17.0°C (63°F) [RH = 51%]
Pressure (altimeter): 29.79 inches Hg (1009.0 mb)
Winds: from the ENE (60 degrees) at 2 MPH (2 knots; 1.0 m/s)
Visibility: 6 or more miles (10+ km)
Ceiling: at least 12,000 feet AGL
Clouds: scattered clouds at 4000 feet AGL
Weather: no significant weather observed at this time

METAR text: RKTN 160400Z 06001KT 9999 SCT050 BKN200 27/17 Q1010
Conditions at: RKTN (TAEGU (US/KOR-AF, KR) observed 0400 UTC 16 September 2019
Temperature: 27.0°C (81°F)
Dewpoint: 17.0°C (63°F) [RH = 54%]
Pressure (altimeter): 29.82 inches Hg (1010.0 mb)
Winds: from the ENE (60 degrees) at 1 MPH (1 knots; 0.5 m/s)
Visibility: 6 or more miles (10+ km)
Ceiling: 20000 feet AGL
Clouds: scattered clouds at 5000 feet AGL
broken clouds at 20000 feet AGL
Weather: no significant weather observed at this time

METAR text: RKTN 160300Z 36001KT 9999 SCT050 BKN200 26/17 Q1010
Conditions at: RKTN (TAEGU (US/KOR-AF, KR) observed 0300 UTC 16 September 2019
Temperature: 26.0°C (79°F)
Dewpoint: 17.0°C (63°F) [RH = 58%]
Pressure (altimeter): 29.82 inches Hg (1010.0 mb)
Winds: from the N (360 degrees) at 1 MPH (1 knots; 0.5 m/s)
Visibility: 6 or more miles (10+ km)
Ceiling: 20000 feet AGL
Clouds: scattered clouds at 5000 feet AGL
broken clouds at 20000 feet AGL
Weather: no significant weather observed at this time

METAR text: RKTN 160200Z 22002KT 9999 SCT050 BKN200 25/17 Q1011
Conditions at: RKTN (TAEGU (US/KOR-AF, KR) observed 0200 UTC 16 September 2019
Temperature: 25.0°C (77°F)
Dewpoint: 17.0°C (63°F) [RH = 61%]
Pressure (altimeter): 29.85 inches Hg (1011.0 mb)
Winds: from the SW (220 degrees) at 2 MPH (2 knots; 1.0 m/s)
Visibility: 6 or more miles (10+ km)
Ceiling: 20000 feet AGL
Clouds: scattered clouds at 5000 feet AGL
broken clouds at 20000 feet AGL
Weather: no significant weather observed at this time

METAR text: RKTN 160100Z 14003KT 9999 FEW040 SCT200 23/16 Q1011
Conditions at: RKTN (TAEGU (US/KOR-AF, KR) observed 0100 UTC 16 September 2019
Temperature: 23.0°C (73°F)
Dewpoint: 16.0°C (61°F) [RH = 65%]
Pressure (altimeter): 29.85 inches Hg (1011.0 mb)
Winds: from the SE (140 degrees) at 3 MPH (3 knots; 1.5 m/s)
Visibility: 6 or more miles (10+ km)
Ceiling: at least 12,000 feet AGL
Clouds: few clouds at 4000 feet AGL
scattered clouds at 20000 feet AGL
Weather: no significant weather observed at this time

Forecast for: RKTN (TAEGU (US/KOR-AF, KR)
Text: TAF RKTN 171100Z 1712/1818 13006KT 9999 FEW040 SCT200 TN15/1721Z TX28/1806Z
Forecast period: 1200 UTC 17 September 2019 to 1800 UTC 18 September 2019
Forecast type: FROM: standard forecast or significant change
Winds: from the SE (130 degrees) at 7 MPH (6 knots; 3.1 m/s)
Visibility: 6 or more miles 10+ km)
Ceiling: at least 12,000 feet AGL
Clouds: few clouds at 4000 feet AGL
scattered clouds at 20000 feet AGL
Weather: no significant weather forecast for this period